Time;durP1;ratioP1;P1;durP2;ratioP2;P2;SDS_P1;SDS_P2;PMS_P1;PMS_P2;Temp;Humidity;BMP_temperature;BMP_pressure;BME280_temperature;BME280_humidity;BME280_pressure;Samples;Min_cycle;Max_cycle;Signal;HPM_P1;HPM_P2
2023/05/07 00:01:41;;;;;;;4.00;3.63;;;;;;;;;;4944913;29;20735;-66
2023/05/07 00:04:10;;;;;;;5.00;3.60;;;;;;;;;;4944640;29;20690;-67
2023/05/07 00:06:38;;;;;;;6.47;4.00;;;;;;;;;;4945223;29;20671;-67
2023/05/07 00:09:06;;;;;;;5.70;3.73;;;;;;;;;;4944883;29;20761;-67
2023/05/07 00:11:35;;;;;;;4.50;3.43;;;;;;;;;;4909423;29;20715;-66
2023/05/07 00:14:03;;;;;;;4.83;4.17;;;;;;;;;;4909651;29;20743;-66
2023/05/07 00:16:32;;;;;;;4.13;3.83;;;;;;;;;;4942228;29;20698;-66
2023/05/07 00:19:01;;;;;;;3.70;3.50;;;;;;;;;;4945152;29;20646;-67
2023/05/07 00:21:30;;;;;;;3.73;3.53;;;;;;;;;;4944416;29;20726;-67
2023/05/07 00:23:58;;;;;;;17.03;3.57;;;;;;;;;;4944949;29;20679;-67
2023/05/07 00:26:26;;;;;;;3.57;3.37;;;;;;;;;;4943641;29;21228;-65
2023/05/07 00:28:55;;;;;;;4.60;4.20;;;;;;;;;;4945165;29;20736;-67
2023/05/07 00:31:23;;;;;;;4.73;4.43;;;;;;;;;;4942901;29;20666;-66
2023/05/07 00:33:53;;;;;;;5.10;4.47;;;;;;;;;;4941217;29;20678;-66
2023/05/07 00:36:21;;;;;;;8.47;4.30;;;;;;;;;;4944489;29;20723;-67
2023/05/07 00:38:49;;;;;;;5.23;4.07;;;;;;;;;;4930651;29;20771;-66
2023/05/07 00:41:18;;;;;;;4.40;4.00;;;;;;;;;;4928985;29;20681;-66
2023/05/07 00:43:46;;;;;;;4.07;3.60;;;;;;;;;;4929025;29;20684;-66
2023/05/07 00:46:15;;;;;;;4.93;4.43;;;;;;;;;;4944102;29;20658;-66
2023/05/07 00:48:44;;;;;;;4.83;4.30;;;;;;;;;;4943008;29;20767;-67
2023/05/07 00:51:13;;;;;;;4.90;4.40;;;;;;;;;;4943710;29;20666;-65
2023/05/07 00:53:41;;;;;;;5.27;4.47;;;;;;;;;;4943512;29;21222;-66
2023/05/07 00:56:10;;;;;;;4.93;4.53;;;;;;;;;;4942920;29;20658;-67
2023/05/07 00:58:38;;;;;;;6.70;4.90;;;;;;;;;;4944203;29;20711;-67
2023/05/07 01:01:10;;;;;;;4.77;4.27;;;;;;;;;;4943336;29;20690;-66
2023/05/07 01:03:39;;;;;;;4.60;4.20;;;;;;;;;;4925515;29;20603;-66
2023/05/07 01:06:08;;;;;;;4.63;4.27;;;;;;;;;;4942373;29;20670;-66
2023/05/07 01:08:39;;;;;;;4.00;3.70;;;;;;;;;;4939286;29;20690;-64
2023/05/07 01:11:08;;;;;;;4.60;4.20;;;;;;;;;;4910452;29;20712;-66
2023/05/07 01:13:37;;;;;;;5.13;4.57;;;;;;;;;;4936530;29;20747;-65
2023/05/07 01:16:06;;;;;;;7.87;4.70;;;;;;;;;;4943028;29;20707;-64
2023/05/07 01:18:35;;;;;;;5.17;4.53;;;;;;;;;;4926207;29;20711;-66
2023/05/07 01:21:05;;;;;;;5.07;4.00;;;;;;;;;;4943169;29;20686;-66
2023/05/07 01:23:36;;;;;;;5.20;4.30;;;;;;;;;;4942134;29;20691;-66
2023/05/07 01:26:04;;;;;;;4.53;4.13;;;;;;;;;;4944013;29;20927;-67
2023/05/07 01:28:34;;;;;;;6.83;5.00;;;;;;;;;;4925960;29;20664;-67
2023/05/07 01:31:05;;;;;;;5.27;4.50;;;;;;;;;;4924584;29;20745;-66
2023/05/07 01:33:36;;;;;;;4.47;4.07;;;;;;;;;;4936100;29;20605;-66
2023/05/07 01:36:07;;;;;;;3.90;3.60;;;;;;;;;;4924277;29;20918;-67
2023/05/07 01:38:36;;;;;;;4.97;4.40;;;;;;;;;;4923044;29;20672;-67
2023/05/07 01:41:05;;;;;;;4.97;4.57;;;;;;;;;;4923877;29;20675;-66
2023/05/07 01:43:33;;;;;;;4.80;4.30;;;;;;;;;;4923677;29;20690;-66
2023/05/07 01:46:03;;;;;;;4.70;4.23;;;;;;;;;;4924929;29;20688;-66
2023/05/07 01:48:31;;;;;;;4.90;4.53;;;;;;;;;;4908304;29;21022;-66
2023/05/07 01:50:59;;;;;;;4.70;4.40;;;;;;;;;;4923918;29;21085;-67
2023/05/07 01:53:28;;;;;;;4.73;4.33;;;;;;;;;;4923717;29;20704;-66
2023/05/07 01:55:58;;;;;;;5.57;4.97;;;;;;;;;;4941705;29;20622;-66
2023/05/07 01:58:26;;;;;;;5.10;4.70;;;;;;;;;;4930456;29;20690;-66
2023/05/07 02:00:55;;;;;;;5.40;4.50;;;;;;;;;;4940157;29;20662;-66
2023/05/07 02:03:23;;;;;;;6.00;4.83;;;;;;;;;;4940579;29;20715;-67
2023/05/07 02:05:59;;;;;;;6.03;4.67;;;;;;;;;;4940665;29;20584;-67
2023/05/07 02:08:34;;;;;;;5.33;4.83;;;;;;;;;;4925619;29;20638;-67
2023/05/07 02:11:04;;;;;;;4.90;4.40;;;;;;;;;;4925546;29;20686;-67
2023/05/07 02:13:34;;;;;;;6.03;5.10;;;;;;;;;;4926065;29;20684;-67
2023/05/07 02:16:02;;;;;;;5.70;5.10;;;;;;;;;;4932482;29;20683;-67
2023/05/07 02:18:31;;;;;;;5.33;4.67;;;;;;;;;;4940735;29;20684;-67
2023/05/07 02:21:00;;;;;;;7.13;4.80;;;;;;;;;;4940749;29;20685;-67
2023/05/07 02:23:28;;;;;;;4.93;4.53;;;;;;;;;;4941538;29;20686;-67
2023/05/07 02:25:56;;;;;;;4.80;4.50;;;;;;;;;;4940584;29;20802;-68
2023/05/07 02:28:26;;;;;;;13.90;4.97;;;;;;;;;;4921928;29;20679;-68
2023/05/07 02:31:01;;;;;;;4.80;4.40;;;;;;;;;;4907137;29;20638;-68
2023/05/07 02:33:31;;;;;;;6.97;5.10;;;;;;;;;;4931433;29;20694;-67
2023/05/07 02:36:06;;;;;;;4.83;4.50;;;;;;;;;;4929756;29;20724;-68
2023/05/07 02:38:35;;;;;;;4.60;4.30;;;;;;;;;;4942749;29;20670;-67
2023/05/07 02:41:04;;;;;;;4.53;4.23;;;;;;;;;;4942663;29;21022;-68
2023/05/07 02:43:34;;;;;;;5.43;4.93;;;;;;;;;;4942692;29;20694;-68
2023/05/07 02:46:03;;;;;;;6.53;4.80;;;;;;;;;;4941123;29;20705;-67
2023/05/07 02:48:31;;;;;;;6.00;5.50;;;;;;;;;;4942042;29;20723;-67
2023/05/07 02:51:00;;;;;;;5.53;4.97;;;;;;;;;;4940869;29;20720;-68
2023/05/07 02:53:29;;;;;;;5.40;4.90;;;;;;;;;;4941079;29;21052;-67
2023/05/07 02:55:58;;;;;;;4.77;4.43;;;;;;;;;;4928936;29;20686;-68
2023/05/07 02:58:26;;;;;;;4.80;4.40;;;;;;;;;;4940990;29;20800;-67
2023/05/07 03:00:56;;;;;;;5.70;4.70;;;;;;;;;;4939635;29;20694;-67
2023/05/07 03:03:35;;;;;;;4.77;4.47;;;;;;;;;;4905974;29;20681;-67
2023/05/07 03:06:03;;;;;;;4.70;4.40;;;;;;;;;;4925088;29;20708;-67
2023/05/07 03:08:31;;;;;;;5.00;4.50;;;;;;;;;;4940539;29;20702;-67
2023/05/07 03:11:00;;;;;;;5.43;5.00;;;;;;;;;;4941601;29;20722;-67
2023/05/07 03:13:28;;;;;;;5.20;4.80;;;;;;;;;;4923783;29;20705;-67
2023/05/07 03:15:58;;;;;;;5.37;4.97;;;;;;;;;;4941124;29;20707;-68
2023/05/07 03:18:26;;;;;;;5.53;4.63;;;;;;;;;;4937289;29;20690;-67
2023/05/07 03:20:54;;;;;;;8.40;5.07;;;;;;;;;;4924909;29;20698;-68
2023/05/07 03:23:22;;;;;;;5.17;4.70;;;;;;;;;;4941708;29;20686;-67
2023/05/07 03:25:51;;;;;;;5.53;4.83;;;;;;;;;;4941413;29;20719;-67
2023/05/07 03:28:19;;;;;;;7.50;4.53;;;;;;;;;;4924055;29;20719;-68
2023/05/07 03:30:53;;;;;;;5.70;5.17;;;;;;;;;;4941140;29;20681;-67
2023/05/07 03:33:23;;;;;;;7.10;5.23;;;;;;;;;;4939846;29;20707;-68
2023/05/07 03:35:51;;;;;;;6.33;5.10;;;;;;;;;;4940998;29;20692;-68
2023/05/07 03:38:24;;;;;;;5.03;4.40;;;;;;;;;;4941797;29;20694;-67
2023/05/07 03:40:53;;;;;;;5.50;5.00;;;;;;;;;;4941010;29;20711;-67
2023/05/07 03:43:21;;;;;;;5.37;4.90;;;;;;;;;;4940792;29;20699;-67
2023/05/07 03:45:54;;;;;;;5.30;4.80;;;;;;;;;;4940436;29;20651;-67
2023/05/07 03:48:28;;;;;;;5.43;4.93;;;;;;;;;;4925159;29;20672;-67
2023/05/07 03:50:59;;;;;;;5.23;4.60;;;;;;;;;;4924450;29;20695;-68
2023/05/07 03:53:31;;;;;;;5.87;5.37;;;;;;;;;;4925246;29;20790;-67
2023/05/07 03:55:59;;;;;;;6.70;4.47;;;;;;;;;;4924816;29;20703;-68
2023/05/07 03:58:28;;;;;;;5.17;4.73;;;;;;;;;;4909670;29;20701;-67
2023/05/07 04:00:59;;;;;;;6.37;4.50;;;;;;;;;;4905829;29;20651;-67
2023/05/07 04:03:31;;;;;;;4.47;4.17;;;;;;;;;;4905243;29;20655;-67
2023/05/07 04:06:01;;;;;;;8.20;5.67;;;;;;;;;;4921793;29;20628;-67
2023/05/07 04:08:30;;;;;;;4.93;4.53;;;;;;;;;;4905590;29;20685;-68
2023/05/07 04:10:58;;;;;;;5.30;4.90;;;;;;;;;;4920470;29;20738;-67
2023/05/07 04:13:31;;;;;;;4.63;4.33;;;;;;;;;;4906977;29;20651;-67
2023/05/07 04:16:00;;;;;;;6.27;4.93;;;;;;;;;;4905983;29;20640;-67
2023/05/07 04:18:28;;;;;;;5.57;4.50;;;;;;;;;;4904918;29;20691;-67
2023/05/07 04:20:58;;;;;;;4.63;4.33;;;;;;;;;;4920923;29;20667;-67
2023/05/07 04:23:26;;;;;;;7.03;5.17;;;;;;;;;;4937658;29;20678;-67
2023/05/07 04:25:55;;;;;;;4.87;4.47;;;;;;;;;;4945392;29;21318;-67
2023/05/07 04:28:50;;;;;;;5.80;5.30;;;;;;;;;;4944424;29;20738;-67
2023/05/07 04:31:18;;;;;;;5.37;4.97;;;;;;;;;;4943841;29;20716;-67
2023/05/07 04:33:51;;;;;;;9.23;4.97;;;;;;;;;;4923851;29;20685;-67
2023/05/07 04:36:21;;;;;;;4.97;4.40;;;;;;;;;;4943290;29;20711;-67
2023/05/07 04:38:58;;;;;;;6.27;4.43;;;;;;;;;;4944602;29;20626;-67
2023/05/07 04:41:27;;;;;;;5.20;4.80;;;;;;;;;;4944050;29;20701;-67
2023/05/07 04:43:56;;;;;;;5.43;4.93;;;;;;;;;;4927462;29;20725;-67
2023/05/07 04:46:26;;;;;;;10.80;4.73;;;;;;;;;;4944550;29;20678;-67
2023/05/07 04:48:56;;;;;;;5.80;4.37;;;;;;;;;;4932953;29;20694;-68
2023/05/07 04:51:26;;;;;;;6.37;3.73;;;;;;;;;;4940222;29;20760;-68
2023/05/07 04:53:55;;;;;;;6.17;4.60;;;;;;;;;;4943925;29;20694;-67
2023/05/07 04:56:23;;;;;;;4.93;4.47;;;;;;;;;;4928607;29;20748;-67
2023/05/07 04:58:51;;;;;;;6.90;5.10;;;;;;;;;;4944902;29;21062;-67
2023/05/07 05:01:22;;;;;;;5.10;4.70;;;;;;;;;;4926739;29;20655;-67
2023/05/07 05:03:50;;;;;;;4.87;4.47;;;;;;;;;;4915498;29;20672;-67
2023/05/07 05:06:19;;;;;;;7.90;4.73;;;;;;;;;;4922615;29;20694;-67
2023/05/07 05:08:49;;;;;;;7.43;5.33;;;;;;;;;;4908014;29;20679;-67
2023/05/07 05:11:17;;;;;;;4.97;4.57;;;;;;;;;;4908376;29;20723;-67
2023/05/07 05:13:48;;;;;;;4.43;4.03;;;;;;;;;;4925065;29;20698;-67
2023/05/07 05:16:19;;;;;;;4.63;4.23;;;;;;;;;;4937733;29;20722;-68
2023/05/07 05:18:47;;;;;;;4.70;3.97;;;;;;;;;;4919604;29;20683;-67
2023/05/07 05:21:19;;;;;;;5.20;4.00;;;;;;;;;;4907540;29;20673;-67
2023/05/07 05:23:51;;;;;;;4.90;4.60;;;;;;;;;;4915936;29;20668;-67
2023/05/07 05:26:22;;;;;;;4.77;4.30;;;;;;;;;;4934284;29;20676;-68
2023/05/07 05:28:51;;;;;;;7.33;4.33;;;;;;;;;;4931085;29;20703;-67
2023/05/07 05:31:22;;;;;;;4.93;4.43;;;;;;;;;;4933681;29;21051;-67
2023/05/07 05:33:51;;;;;;;4.10;3.70;;;;;;;;;;4933387;29;20671;-68
2023/05/07 05:36:20;;;;;;;4.53;4.07;;;;;;;;;;4942119;29;21052;-68
2023/05/07 05:38:51;;;;;;;4.70;4.30;;;;;;;;;;4939395;29;20727;-66
2023/05/07 05:41:20;;;;;;;6.53;3.93;;;;;;;;;;4923203;29;21429;-66
2023/05/07 05:43:48;;;;;;;4.93;4.47;;;;;;;;;;4929107;29;20631;-64
2023/05/07 05:46:17;;;;;;;4.60;4.10;;;;;;;;;;4926370;29;20611;-64
2023/05/07 05:48:45;;;;;;;4.70;4.23;;;;;;;;;;4923199;29;20620;-64
2023/05/07 05:51:13;;;;;;;6.30;4.17;;;;;;;;;;4926361;29;20709;-64
2023/05/07 05:53:42;;;;;;;6.63;3.70;;;;;;;;;;4934140;29;21145;-64
2023/05/07 05:56:11;;;;;;;16.30;3.73;;;;;;;;;;4934439;29;20611;-65
2023/05/07 05:58:42;;;;;;;5.13;4.60;;;;;;;;;;4916603;29;20614;-65
2023/05/07 06:01:11;;;;;;;4.03;3.47;;;;;;;;;;4936971;29;20629;-65
2023/05/07 06:03:40;;;;;;;4.73;4.33;;;;;;;;;;4908386;29;20770;-65
2023/05/07 06:06:15;;;;;;;5.30;3.83;;;;;;;;;;4938843;29;20664;-64
2023/05/07 06:08:44;;;;;;;4.60;4.20;;;;;;;;;;4934056;29;20675;-64
2023/05/07 06:11:16;;;;;;;7.13;4.33;;;;;;;;;;4933276;29;20591;-64
2023/05/07 06:13:47;;;;;;;7.20;4.53;;;;;;;;;;4918867;29;20976;-64
2023/05/07 06:16:16;;;;;;;4.47;4.07;;;;;;;;;;4922525;29;20655;-64
2023/05/07 06:18:45;;;;;;;4.10;3.80;;;;;;;;;;4924793;29;20620;-64
2023/05/07 06:21:15;;;;;;;3.90;3.70;;;;;;;;;;4912578;29;20606;-64
2023/05/07 06:23:43;;;;;;;4.50;4.10;;;;;;;;;;4911562;29;20599;-63
2023/05/07 06:26:12;;;;;;;4.17;3.77;;;;;;;;;;4917971;29;20654;-63
2023/05/07 06:28:45;;;;;;;4.57;4.17;;;;;;;;;;4918488;29;20595;-64
2023/05/07 06:31:16;;;;;;;8.33;3.67;;;;;;;;;;4916266;29;20985;-64
2023/05/07 06:33:48;;;;;;;6.17;3.60;;;;;;;;;;4922873;29;20581;-63
2023/05/07 06:36:17;;;;;;;4.17;3.87;;;;;;;;;;4939784;29;20653;-63
2023/05/07 06:38:46;;;;;;;3.97;3.60;;;;;;;;;;4941361;29;20595;-64
2023/05/07 06:41:14;;;;;;;3.10;2.90;;;;;;;;;;4916469;29;20642;-64
2023/05/07 06:43:42;;;;;;;6.53;3.70;;;;;;;;;;4931870;29;21191;-63
2023/05/07 06:46:28;;;;;;;4.90;4.03;;;;;;;;;;4900073;29;20673;-64
2023/05/07 06:48:57;;;;;;;9.80;3.43;;;;;;;;;;4932072;29;20600;-64
2023/05/07 06:51:26;;;;;;;4.60;3.30;;;;;;;;;;4932664;29;21144;-65
2023/05/07 06:53:55;;;;;;;3.60;3.40;;;;;;;;;;4920963;29;20625;-63
2023/05/07 06:56:24;;;;;;;4.00;3.70;;;;;;;;;;4932938;29;20639;-63
2023/05/07 06:58:52;;;;;;;3.70;3.43;;;;;;;;;;4923616;29;20646;-63
2023/05/07 07:01:21;;;;;;;4.20;3.80;;;;;;;;;;4914773;29;20619;-63
2023/05/07 07:03:51;;;;;;;4.80;3.40;;;;;;;;;;4933190;29;20706;-63
2023/05/07 07:06:21;;;;;;;3.13;2.90;;;;;;;;;;4914449;29;20616;-64
2023/05/07 07:08:50;;;;;;;3.20;3.00;;;;;;;;;;4932541;29;20648;-64
2023/05/07 07:11:20;;;;;;;3.67;3.40;;;;;;;;;;4921595;29;20970;-63
2023/05/07 07:13:48;;;;;;;3.77;3.40;;;;;;;;;;4925414;29;20663;-63
2023/05/07 07:16:17;;;;;;;4.17;3.27;;;;;;;;;;4904641;29;20658;-63
2023/05/07 07:18:46;;;;;;;3.17;3.03;;;;;;;;;;4918044;29;20635;-63
2023/05/07 07:21:16;;;;;;;7.03;3.10;;;;;;;;;;4934738;29;20620;-63
2023/05/07 07:23:44;;;;;;;4.30;3.47;;;;;;;;;;4917897;29;20621;-63
2023/05/07 07:26:13;;;;;;;4.07;3.80;;;;;;;;;;4934995;29;20974;-63
2023/05/07 07:28:44;;;;;;;3.77;3.10;;;;;;;;;;4925269;29;20629;-64
2023/05/07 07:31:13;;;;;;;3.43;3.10;;;;;;;;;;4931397;29;20616;-65
2023/05/07 07:33:41;;;;;;;3.40;3.20;;;;;;;;;;4923602;29;20668;-65
2023/05/07 07:36:09;;;;;;;5.77;3.63;;;;;;;;;;4917955;29;20706;-64
2023/05/07 07:38:39;;;;;;;4.00;3.70;;;;;;;;;;4914978;29;20973;-64
2023/05/07 07:41:09;;;;;;;6.30;2.97;;;;;;;;;;4924669;29;20951;-63
2023/05/07 07:43:38;;;;;;;3.37;3.17;;;;;;;;;;4931436;29;20675;-64
2023/05/07 07:46:07;;;;;;;3.50;3.30;;;;;;;;;;4925627;29;21264;-64
2023/05/07 07:48:35;;;;;;;3.77;3.57;;;;;;;;;;4935017;29;20664;-64
2023/05/07 07:51:03;;;;;;;3.67;3.47;;;;;;;;;;4934871;29;20719;-64
2023/05/07 07:53:32;;;;;;;5.00;4.03;;;;;;;;;;4925799;29;21026;-64
2023/05/07 07:56:01;;;;;;;4.37;3.97;;;;;;;;;;4913858;29;20638;-65
2023/05/07 07:58:35;;;;;;;6.73;3.70;;;;;;;;;;4936878;29;20616;-65
2023/05/07 08:01:04;;;;;;;5.97;4.37;;;;;;;;;;4936114;29;20604;-64
2023/05/07 08:03:32;;;;;;;3.60;3.40;;;;;;;;;;4936498;29;20632;-64
2023/05/07 08:06:01;;;;;;;3.93;3.63;;;;;;;;;;4925118;29;20629;-65
2023/05/07 08:08:30;;;;;;;3.83;3.53;;;;;;;;;;4927673;29;20758;-63
2023/05/07 08:10:59;;;;;;;3.87;3.17;;;;;;;;;;4910162;29;20685;-65
2023/05/07 08:13:33;;;;;;;4.20;3.80;;;;;;;;;;4935273;29;20659;-64
2023/05/07 08:16:02;;;;;;;3.93;3.27;;;;;;;;;;4935012;29;20675;-64
2023/05/07 08:18:30;;;;;;;4.03;3.83;;;;;;;;;;4932761;29;21082;-64
2023/05/07 08:21:02;;;;;;;3.70;3.50;;;;;;;;;;4920865;29;20936;-65
2023/05/07 08:23:31;;;;;;;4.07;3.83;;;;;;;;;;4943855;29;20624;-64
2023/05/07 08:26:00;;;;;;;4.27;3.70;;;;;;;;;;4937406;29;20690;-63
2023/05/07 08:28:28;;;;;;;4.37;4.07;;;;;;;;;;4936706;29;21025;-63
2023/05/07 08:31:00;;;;;;;4.07;3.70;;;;;;;;;;4936961;29;21049;-64
2023/05/07 08:33:29;;;;;;;3.77;3.40;;;;;;;;;;4926993;29;21269;-64
2023/05/07 08:35:58;;;;;;;4.20;4.00;;;;;;;;;;4920527;29;20623;-64
2023/05/07 08:38:26;;;;;;;5.20;4.90;;;;;;;;;;4926737;29;20636;-63
2023/05/07 08:40:55;;;;;;;5.10;3.70;;;;;;;;;;4917991;29;20721;-64
2023/05/07 08:43:25;;;;;;;5.50;4.53;;;;;;;;;;4933619;29;21009;-64
2023/05/07 08:45:55;;;;;;;4.63;4.23;;;;;;;;;;4937449;29;20619;-64
2023/05/07 08:48:27;;;;;;;5.10;3.80;;;;;;;;;;4928358;29;20619;-63
2023/05/07 08:51:02;;;;;;;4.40;4.20;;;;;;;;;;4918137;29;20597;-63
2023/05/07 08:53:31;;;;;;;4.17;3.90;;;;;;;;;;4928522;29;21055;-63
2023/05/07 08:56:00;;;;;;;3.77;3.57;;;;;;;;;;4919782;29;20991;-62
2023/05/07 08:58:30;;;;;;;4.07;3.77;;;;;;;;;;4920830;29;20670;-64
2023/05/07 09:00:58;;;;;;;4.13;3.83;;;;;;;;;;4924326;29;20620;-64
2023/05/07 09:03:28;;;;;;;4.40;4.10;;;;;;;;;;4927911;29;20621;-64
2023/05/07 09:05:58;;;;;;;4.97;4.57;;;;;;;;;;4920569;29;20608;-63
2023/05/07 09:08:28;;;;;;;4.30;4.10;;;;;;;;;;4918851;29;20644;-63
2023/05/07 09:10:59;;;;;;;5.00;4.70;;;;;;;;;;4896319;29;20667;-64
2023/05/07 09:13:28;;;;;;;4.20;4.00;;;;;;;;;;4898990;29;20661;-64
2023/05/07 09:15:57;;;;;;;4.10;3.80;;;;;;;;;;4905473;29;20624;-64
2023/05/07 09:18:28;;;;;;;21.03;5.20;;;;;;;;;;4895810;29;20637;-63
2023/05/07 09:20:57;;;;;;;8.63;4.10;;;;;;;;;;4899655;29;20632;-63
2023/05/07 09:23:25;;;;;;;5.17;4.80;;;;;;;;;;4916228;29;20684;-63
2023/05/07 09:26:02;;;;;;;4.10;3.80;;;;;;;;;;4931564;29;20627;-63
2023/05/07 09:28:32;;;;;;;4.43;4.23;;;;;;;;;;4916293;29;20610;-64
2023/05/07 09:31:01;;;;;;;4.50;4.30;;;;;;;;;;4931642;29;20627;-64
2023/05/07 09:33:31;;;;;;;4.77;4.50;;;;;;;;;;4916037;29;20668;-64
2023/05/07 09:36:03;;;;;;;4.10;3.90;;;;;;;;;;4931773;29;20652;-64
2023/05/07 09:38:32;;;;;;;6.67;5.00;;;;;;;;;;4918094;29;20573;-64
2023/05/07 09:41:05;;;;;;;5.23;4.83;;;;;;;;;;4916821;29;20621;-64
2023/05/07 09:43:35;;;;;;;4.70;4.40;;;;;;;;;;4919718;29;20601;-63
2023/05/07 09:46:08;;;;;;;4.93;4.53;;;;;;;;;;4918491;29;20609;-63
2023/05/07 09:48:42;;;;;;;5.20;4.20;;;;;;;;;;4921814;29;20631;-64
2023/05/07 09:51:17;;;;;;;5.77;5.33;;;;;;;;;;4933807;29;20631;-63
2023/05/07 09:53:47;;;;;;;5.40;5.10;;;;;;;;;;4933486;29;20667;-65
2023/05/07 09:56:16;;;;;;;4.67;4.40;;;;;;;;;;4949839;29;20621;-64
2023/05/07 09:58:45;;;;;;;5.97;5.10;;;;;;;;;;4934276;29;20687;-64
2023/05/07 10:01:14;;;;;;;5.23;4.93;;;;;;;;;;4941720;29;20979;-65
2023/05/07 10:03:45;;;;;;;5.53;5.20;;;;;;;;;;4922479;29;20651;-64
2023/05/07 10:06:14;;;;;;;5.47;4.97;;;;;;;;;;4927218;29;20625;-65
2023/05/07 10:08:44;;;;;;;5.43;5.13;;;;;;;;;;4919064;29;20703;-65
2023/05/07 10:11:12;;;;;;;5.63;5.10;;;;;;;;;;4918999;29;20674;-64
2023/05/07 10:13:41;;;;;;;5.43;4.93;;;;;;;;;;4918480;29;20703;-64
2023/05/07 10:16:11;;;;;;;6.93;5.00;;;;;;;;;;4915112;29;20605;-63
2023/05/07 10:18:49;;;;;;;5.87;4.73;;;;;;;;;;4899241;29;21279;-63
2023/05/07 10:21:23;;;;;;;5.90;5.03;;;;;;;;;;4913261;29;20616;-64
2023/05/07 10:23:58;;;;;;;4.93;4.57;;;;;;;;;;4899399;29;20763;-64
2023/05/07 10:26:27;;;;;;;5.97;4.73;;;;;;;;;;4914025;29;20582;-64
2023/05/07 10:28:57;;;;;;;5.43;5.23;;;;;;;;;;4916481;29;20634;-64
2023/05/07 10:31:38;;;;;;;5.63;5.20;;;;;;;;;;4914214;29;20616;-64
2023/05/07 10:34:11;;;;;;;5.33;4.70;;;;;;;;;;4913731;29;20691;-64
2023/05/07 10:36:40;;;;;;;5.83;5.40;;;;;;;;;;4915686;29;20609;-63
2023/05/07 10:39:09;;;;;;;5.10;4.80;;;;;;;;;;4913598;29;21207;-64
2023/05/07 10:41:37;;;;;;;5.20;4.80;;;;;;;;;;4912995;29;20626;-64
2023/05/07 10:44:06;;;;;;;5.77;5.50;;;;;;;;;;4898761;29;20646;-64
2023/05/07 10:46:36;;;;;;;5.23;5.03;;;;;;;;;;4929474;29;20616;-64
2023/05/07 10:49:20;;;;;;;6.40;5.90;;;;;;;;;;4913748;29;20620;-64
2023/05/07 10:52:16;;;;;;;5.23;5.00;;;;;;;;;;4914489;29;20616;-65
2023/05/07 10:55:21;;;;;;;5.60;5.20;;;;;;;;;;4896727;29;20638;-64
2023/05/07 10:58:25;;;;;;;6.33;5.93;;;;;;;;;;4924508;29;20637;-65
2023/05/07 11:00:58;;;;;;;6.20;5.83;;;;;;;;;;4926534;29;21047;-64
2023/05/07 11:03:31;;;;;;;5.53;5.20;;;;;;;;;;4916658;29;20620;-64
2023/05/07 11:06:12;;;;;;;5.63;5.33;;;;;;;;;;4940536;29;20627;-63
2023/05/07 11:08:55;;;;;;;5.70;5.40;;;;;;;;;;4927437;29;20609;-63
2023/05/07 11:11:47;;;;;;;6.57;6.17;;;;;;;;;;4935260;29;20613;-64
2023/05/07 11:14:55;;;;;;;6.17;5.87;;;;;;;;;;4918885;29;20645;-64
2023/05/07 11:17:31;;;;;;;7.03;6.63;;;;;;;;;;4850766;29;20628;-64
2023/05/07 11:20:05;;;;;;;7.13;6.47;;;;;;;;;;4856084;29;20643;-64
2023/05/07 11:22:41;;;;;;;7.30;6.80;;;;;;;;;;4890449;29;20644;-64
2023/05/07 11:25:30;;;;;;;8.00;7.50;;;;;;;;;;4909949;29;20676;-63
2023/05/07 11:28:19;;;;;;;6.87;6.63;;;;;;;;;;4920943;29;20673;-64
2023/05/07 11:30:56;;;;;;;7.20;6.83;;;;;;;;;;4896327;29;20624;-63
2023/05/07 11:33:25;;;;;;;7.17;6.80;;;;;;;;;;4918040;29;20637;-63
2023/05/07 11:35:55;;;;;;;7.80;7.40;;;;;;;;;;4915208;29;20624;-64
2023/05/07 11:38:27;;;;;;;7.53;7.23;;;;;;;;;;4912824;29;21047;-64
2023/05/07 11:40:56;;;;;;;9.50;9.00;;;;;;;;;;4932135;29;20648;-64
2023/05/07 11:43:24;;;;;;;8.43;7.83;;;;;;;;;;4917632;29;20633;-65
2023/05/07 11:45:52;;;;;;;6.83;6.53;;;;;;;;;;4917806;29;20633;-64
2023/05/07 11:48:22;;;;;;;7.77;7.17;;;;;;;;;;4912387;29;20637;-64
2023/05/07 11:50:54;;;;;;;8.13;7.73;;;;;;;;;;4918469;29;20973;-66
2023/05/07 11:53:26;;;;;;;8.27;7.67;;;;;;;;;;4917798;29;20621;-64
2023/05/07 11:55:56;;;;;;;7.50;7.20;;;;;;;;;;4918451;29;21207;-63
2023/05/07 11:58:26;;;;;;;7.80;7.30;;;;;;;;;;4918150;29;20617;-64
2023/05/07 12:00:55;;;;;;;7.60;7.30;;;;;;;;;;4925171;29;20639;-64
2023/05/07 12:03:23;;;;;;;7.77;7.37;;;;;;;;;;4914786;29;20636;-63
2023/05/07 12:05:51;;;;;;;8.30;7.60;;;;;;;;;;4919941;29;20629;-64
2023/05/07 12:08:20;;;;;;;7.87;7.47;;;;;;;;;;4921563;29;20685;-63
2023/05/07 12:10:50;;;;;;;8.07;7.70;;;;;;;;;;4928173;29;21243;-64
2023/05/07 12:13:20;;;;;;;8.63;8.20;;;;;;;;;;4937109;29;20690;-63
2023/05/07 12:15:48;;;;;;;9.60;8.90;;;;;;;;;;4936919;29;20670;-64
2023/05/07 12:18:16;;;;;;;8.20;7.77;;;;;;;;;;4936809;29;20975;-64
2023/05/07 12:20:45;;;;;;;7.43;7.13;;;;;;;;;;4936719;29;20617;-63
2023/05/07 12:23:13;;;;;;;8.40;7.90;;;;;;;;;;4940834;29;21139;-64
2023/05/07 12:25:46;;;;;;;7.53;7.13;;;;;;;;;;4935168;29;20707;-64
2023/05/07 12:28:15;;;;;;;8.00;7.50;;;;;;;;;;4917382;29;20924;-63
2023/05/07 12:30:45;;;;;;;8.33;7.83;;;;;;;;;;4905554;29;20630;-64
2023/05/07 12:33:13;;;;;;;7.90;7.40;;;;;;;;;;4936117;29;20679;-65
2023/05/07 12:35:43;;;;;;;7.47;7.17;;;;;;;;;;4936059;29;20722;-64
2023/05/07 12:38:11;;;;;;;8.30;7.80;;;;;;;;;;4936534;29;20620;-66
2023/05/07 12:40:40;;;;;;;8.20;7.60;;;;;;;;;;4935101;29;21062;-64
2023/05/07 12:43:09;;;;;;;8.40;7.80;;;;;;;;;;4935866;29;20621;-66
2023/05/07 12:45:40;;;;;;;7.30;6.90;;;;;;;;;;4936131;29;20641;-65
2023/05/07 12:48:11;;;;;;;7.03;6.73;;;;;;;;;;4936355;29;20596;-64
2023/05/07 12:50:39;;;;;;;7.60;7.20;;;;;;;;;;4934597;29;21177;-64
2023/05/07 12:53:08;;;;;;;7.90;7.60;;;;;;;;;;4935877;29;20655;-64
2023/05/07 12:55:42;;;;;;;8.27;7.87;;;;;;;;;;4935715;29;20671;-66
2023/05/07 12:58:15;;;;;;;8.63;7.80;;;;;;;;;;4934014;29;20969;-64
2023/05/07 13:00:44;;;;;;;8.40;7.80;;;;;;;;;;4938668;29;20752;-68
2023/05/07 13:03:13;;;;;;;8.40;7.87;;;;;;;;;;4939152;29;20296;-65
2023/05/07 13:05:41;;;;;;;11.90;8.93;;;;;;;;;;4937149;29;21264;-62
2023/05/07 13:08:10;;;;;;;8.43;8.03;;;;;;;;;;4936638;29;20635;-62
2023/05/07 13:10:38;;;;;;;8.10;7.80;;;;;;;;;;4938777;29;20683;-64
2023/05/07 13:13:07;;;;;;;8.53;8.20;;;;;;;;;;4932092;29;20629;-63
2023/05/07 13:15:35;;;;;;;8.60;8.10;;;;;;;;;;4935043;29;20678;-63
2023/05/07 13:18:03;;;;;;;8.63;8.00;;;;;;;;;;4937216;29;21182;-63
2023/05/07 13:20:33;;;;;;;8.20;7.70;;;;;;;;;;4935289;29;20648;-62
2023/05/07 13:23:01;;;;;;;8.40;8.00;;;;;;;;;;4920307;29;20626;-62
2023/05/07 13:25:30;;;;;;;8.80;8.40;;;;;;;;;;4930830;29;20630;-63
2023/05/07 13:27:58;;;;;;;8.37;7.93;;;;;;;;;;4936420;29;20632;-62
2023/05/07 13:30:27;;;;;;;9.07;8.37;;;;;;;;;;4936128;29;20631;-63
2023/05/07 13:32:57;;;;;;;8.37;7.90;;;;;;;;;;4936867;29;20620;-62
2023/05/07 13:35:25;;;;;;;9.60;9.00;;;;;;;;;;4936279;29;20648;-62
2023/05/07 13:37:55;;;;;;;8.57;8.17;;;;;;;;;;4936733;29;20631;-62
2023/05/07 13:40:24;;;;;;;8.20;7.87;;;;;;;;;;4935942;29;21248;-62
2023/05/07 13:42:52;;;;;;;8.47;8.07;;;;;;;;;;4919379;29;20628;-62
2023/05/07 13:45:20;;;;;;;8.97;8.37;;;;;;;;;;4936429;29;20613;-62
2023/05/07 13:47:49;;;;;;;8.83;8.43;;;;;;;;;;4919676;29;21022;-63
2023/05/07 13:50:18;;;;;;;9.13;8.63;;;;;;;;;;4936342;29;21224;-62
2023/05/07 13:52:50;;;;;;;8.40;7.90;;;;;;;;;;4919215;29;20993;-63
2023/05/07 13:55:20;;;;;;;8.53;8.03;;;;;;;;;;4903854;29;20631;-62
2023/05/07 13:57:49;;;;;;;8.63;8.13;;;;;;;;;;4936173;29;20589;-62
2023/05/07 14:00:17;;;;;;;9.83;9.33;;;;;;;;;;4936399;29;20627;-63
2023/05/07 14:02:45;;;;;;;7.67;7.37;;;;;;;;;;4935536;29;20620;-63
2023/05/07 14:05:14;;;;;;;8.07;7.57;;;;;;;;;;4918993;29;20617;-63
2023/05/07 14:07:42;;;;;;;7.63;7.23;;;;;;;;;;4936632;29;21198;-62
2023/05/07 14:10:11;;;;;;;8.10;7.53;;;;;;;;;;4928567;29;20761;-62
2023/05/07 14:12:40;;;;;;;9.73;6.70;;;;;;;;;;4919977;29;20635;-63
2023/05/07 14:15:09;;;;;;;6.97;6.73;;;;;;;;;;4936971;29;20664;-62
2023/05/07 14:17:38;;;;;;;6.73;6.43;;;;;;;;;;4936860;29;20617;-62
2023/05/07 14:20:07;;;;;;;6.73;6.23;;;;;;;;;;4936741;29;20968;-63
2023/05/07 14:22:35;;;;;;;6.50;6.10;;;;;;;;;;4937344;29;20620;-64
2023/05/07 14:25:03;;;;;;;6.57;6.27;;;;;;;;;;4936334;29;20977;-61
2023/05/07 14:27:31;;;;;;;7.70;7.20;;;;;;;;;;4937113;29;20973;-61
2023/05/07 14:30:01;;;;;;;6.87;6.57;;;;;;;;;;4935887;29;20624;-62
2023/05/07 14:32:30;;;;;;;6.33;6.03;;;;;;;;;;4923863;29;20643;-62
2023/05/07 14:34:58;;;;;;;6.60;6.30;;;;;;;;;;4935588;29;20641;-63
2023/05/07 14:37:27;;;;;;;6.53;5.93;;;;;;;;;;4923109;29;20999;-63
2023/05/07 14:39:55;;;;;;;6.87;6.47;;;;;;;;;;4935879;29;20656;-62
2023/05/07 14:42:24;;;;;;;6.93;6.33;;;;;;;;;;4934855;29;20646;-64
2023/05/07 14:44:52;;;;;;;6.20;5.87;;;;;;;;;;4939587;29;20651;-62
2023/05/07 14:47:22;;;;;;;6.70;6.23;;;;;;;;;;4946039;29;20632;-62
2023/05/07 14:49:51;;;;;;;7.50;6.30;;;;;;;;;;4944193;29;20632;-63
2023/05/07 14:52:19;;;;;;;6.80;6.20;;;;;;;;;;4949602;29;20640;-63
2023/05/07 14:54:47;;;;;;;6.67;6.27;;;;;;;;;;4950567;29;20632;-62
2023/05/07 14:57:18;;;;;;;6.93;6.57;;;;;;;;;;4930393;29;20664;-63
2023/05/07 14:59:46;;;;;;;6.47;6.07;;;;;;;;;;4937006;29;20672;-63
2023/05/07 15:02:17;;;;;;;6.70;6.30;;;;;;;;;;4934391;29;21206;-63